KLM96A EGLL-EHAM
Flight info
| Callsign | KLM96A |
|---|---|
| Flight time | 0h 42m |
| Altitude | 29000 |
| Route | BPK Q295 BRAIN M197 REDFA |
| Aircraft | A321/M-SDE3FGHIRWY/LB1 |
Departure
| Time | 2026-05-06 09:39 |
|---|---|
| Airport | London Heathrow Airport (EGLL) |
Arrival
| Time | 2026-05-06 10:21 |
|---|---|
| Airport | Amsterdam Airport Schiphol (EHAM) |
| Time | Latitude | Longitude | Altitude | Speed | Heading |
|---|---|---|---|---|---|
| 2026-05-06 08:54 | 51.46193 | -0.44646 | 90 ft | 0 kts | 131° |
| 2026-05-06 08:59 | 51.46194 | -0.44646 | 89 ft | 0 kts | 131° |
| 2026-05-06 09:01 | 51.46194 | -0.44647 | 89 ft | 0 kts | 131° |
| 2026-05-06 09:19 | 51.46204 | -0.44667 | 89 ft | 8 kts | 131° |
| 2026-05-06 09:20 | 51.46216 | -0.44689 | 85 ft | 8 kts | 131° |
| 2026-05-06 09:20 | 51.46232 | -0.44717 | 87 ft | 8 kts | 120° |
| 2026-05-06 09:20 | 51.46237 | -0.44751 | 87 ft | 9 kts | 65° |
| 2026-05-06 09:20 | 51.46223 | -0.44782 | 88 ft | 7 kts | 43° |
| 2026-05-06 09:21 | 51.46219 | -0.44788 | 87 ft | 14 kts | 43° |
| 2026-05-06 09:22 | 51.46219 | -0.44789 | 86 ft | 0 kts | 43° |
| 2026-05-06 09:23 | 51.46231 | -0.44771 | 90 ft | 8 kts | 43° |
| 2026-05-06 09:24 | 51.46291 | -0.44729 | 86 ft | 10 kts | 348° |
| 2026-05-06 09:24 | 51.46319 | -0.44821 | 89 ft | 10 kts | 271° |
| 2026-05-06 09:24 | 51.46319 | -0.44944 | 89 ft | 12 kts | 270° |
| 2026-05-06 09:24 | 51.46319 | -0.45082 | 89 ft | 13 kts | 270° |
| 2026-05-06 09:25 | 51.46318 | -0.45237 | 89 ft | 15 kts | 270° |
| 2026-05-06 09:25 | 51.46318 | -0.45409 | 89 ft | 16 kts | 270° |
| 2026-05-06 09:25 | 51.46318 | -0.45596 | 89 ft | 18 kts | 272° |
| 2026-05-06 09:25 | 51.46325 | -0.45803 | 86 ft | 19 kts | 270° |
| 2026-05-06 09:26 | 51.46323 | -0.46027 | 86 ft | 21 kts | 269° |
| 2026-05-06 09:26 | 51.46322 | -0.46269 | 86 ft | 22 kts | 270° |
| 2026-05-06 09:26 | 51.46323 | -0.46510 | 86 ft | 21 kts | 270° |
| 2026-05-06 09:26 | 51.46324 | -0.46747 | 86 ft | 21 kts | 270° |
| 2026-05-06 09:27 | 51.46324 | -0.46980 | 86 ft | 21 kts | 270° |
| 2026-05-06 09:27 | 51.46322 | -0.47158 | 86 ft | 10 kts | 269° |
| 2026-05-06 09:27 | 51.46321 | -0.47270 | 86 ft | 10 kts | 269° |
| 2026-05-06 09:27 | 51.46321 | -0.47295 | 86 ft | 0 kts | 270° |
| 2026-05-06 09:28 | 51.46321 | -0.47303 | 86 ft | 3 kts | 270° |
| 2026-05-06 09:28 | 51.46329 | -0.47368 | 88 ft | 10 kts | 285° |
| 2026-05-06 09:29 | 51.46342 | -0.47515 | 86 ft | 16 kts | 270° |
| 2026-05-06 09:29 | 51.46316 | -0.47694 | 87 ft | 18 kts | 241° |
| 2026-05-06 09:29 | 51.46256 | -0.47895 | 89 ft | 22 kts | 261° |
| 2026-05-06 09:29 | 51.46252 | -0.48142 | 84 ft | 22 kts | 270° |
| 2026-05-06 09:30 | 51.46252 | -0.48387 | 84 ft | 21 kts | 270° |
| 2026-05-06 09:30 | 51.46254 | -0.48575 | 85 ft | 16 kts | 279° |
| 2026-05-06 09:30 | 51.46290 | -0.48692 | 87 ft | 6 kts | 320° |
| 2026-05-06 09:30 | 51.46292 | -0.48694 | 87 ft | 0 kts | 321° |
| 2026-05-06 09:36 | 51.46300 | -0.48704 | 88 ft | 5 kts | 322° |
| 2026-05-06 09:36 | 51.46353 | -0.48741 | 86 ft | 12 kts | 345° |
| 2026-05-06 09:37 | 51.46432 | -0.48750 | 85 ft | 11 kts | 6° |
| 2026-05-06 09:37 | 51.46477 | -0.48674 | 86 ft | 10 kts | 83° |
| 2026-05-06 09:37 | 51.46478 | -0.48594 | 85 ft | 0 kts | 89° |
| 2026-05-06 09:38 | 51.46478 | -0.48579 | 85 ft | 13 kts | 89° |
| 2026-05-06 09:38 | 51.46484 | -0.47980 | 85 ft | 91 kts | 90° |
| 2026-05-06 09:39 | 51.46486 | -0.46639 | 90 ft | 147 kts | 90° |
| 2026-05-06 09:39 | 51.46484 | -0.44806 | 277 ft | 172 kts | 86° |
| 2026-05-06 09:39 | 51.46487 | -0.42903 | 896 ft | 174 kts | 85° |
| 2026-05-06 09:39 | 51.46695 | -0.41033 | 1584 ft | 168 kts | 62° |
| 2026-05-06 09:40 | 51.47387 | -0.39535 | 2139 ft | 172 kts | 46° |
| 2026-05-06 09:40 | 51.48211 | -0.38002 | 2415 ft | 193 kts | 47° |
| 2026-05-06 09:40 | 51.50170 | -0.34262 | 3226 ft | 241 kts | 48° |
| 2026-05-06 09:41 | 51.51261 | -0.32160 | 4087 ft | 248 kts | 47° |
| 2026-05-06 09:41 | 51.52286 | -0.29902 | 5049 ft | 256 kts | 59° |
| 2026-05-06 09:41 | 51.52928 | -0.27175 | 5766 ft | 266 kts | 67° |
| 2026-05-06 09:41 | 51.53544 | -0.24376 | 6025 ft | 265 kts | 62° |
| 2026-05-06 09:42 | 51.54536 | -0.21926 | 6295 ft | 261 kts | 43° |
| 2026-05-06 09:42 | 51.55953 | -0.20174 | 6544 ft | 257 kts | 24° |
| 2026-05-06 09:42 | 51.57608 | -0.19110 | 6815 ft | 257 kts | 19° |
| 2026-05-06 09:42 | 51.59282 | -0.18052 | 6978 ft | 258 kts | 15° |
| 2026-05-06 09:43 | 51.61000 | -0.17205 | 7030 ft | 259 kts | 15° |
| 2026-05-06 09:43 | 51.62715 | -0.16321 | 7031 ft | 260 kts | 21° |
| 2026-05-06 09:43 | 51.64201 | -0.14640 | 7038 ft | 264 kts | 39° |
| 2026-05-06 09:43 | 51.65535 | -0.12607 | 7034 ft | 264 kts | 41° |
| 2026-05-06 09:44 | 51.66852 | -0.10536 | 7032 ft | 264 kts | 41° |
| 2026-05-06 09:44 | 51.68164 | -0.08474 | 7306 ft | 264 kts | 41° |
| 2026-05-06 09:44 | 51.69490 | -0.06397 | 7517 ft | 269 kts | 41° |
| 2026-05-06 09:44 | 51.70806 | -0.04339 | 8210 ft | 263 kts | 41° |
| 2026-05-06 09:45 | 51.72153 | -0.02242 | 8581 ft | 272 kts | 41° |
| 2026-05-06 09:45 | 51.73519 | -0.00106 | 8973 ft | 276 kts | 44° |
| 2026-05-06 09:45 | 51.74554 | 0.02527 | 9356 ft | 284 kts | 68° |
| 2026-05-06 09:45 | 51.74979 | 0.05624 | 9756 ft | 289 kts | 78° |
| 2026-05-06 09:46 | 51.75321 | 0.08842 | 9967 ft | 292 kts | 78° |
| 2026-05-06 09:46 | 51.75662 | 0.12121 | 9997 ft | 292 kts | 78° |
| 2026-05-06 09:46 | 51.75995 | 0.15355 | 10001 ft | 292 kts | 78° |
| 2026-05-06 09:46 | 51.76326 | 0.18545 | 10000 ft | 292 kts | 79° |
| 2026-05-06 09:47 | 51.76660 | 0.21766 | 10146 ft | 292 kts | 78° |
| 2026-05-06 09:47 | 51.77009 | 0.25109 | 10527 ft | 312 kts | 78° |
| 2026-05-06 09:47 | 51.77381 | 0.28666 | 10897 ft | 328 kts | 78° |
| 2026-05-06 09:47 | 51.77761 | 0.32325 | 11281 ft | 333 kts | 79° |
| 2026-05-06 09:48 | 51.78145 | 0.36032 | 11785 ft | 336 kts | 79° |
| 2026-05-06 09:48 | 51.78532 | 0.39776 | 12300 ft | 340 kts | 79° |
| 2026-05-06 09:48 | 51.78921 | 0.43559 | 12824 ft | 343 kts | 79° |
| 2026-05-06 09:48 | 51.79311 | 0.47380 | 13364 ft | 346 kts | 79° |
| 2026-05-06 09:49 | 51.79706 | 0.51242 | 13881 ft | 350 kts | 79° |
| 2026-05-06 09:49 | 51.80103 | 0.55138 | 14366 ft | 353 kts | 79° |
| 2026-05-06 09:49 | 51.80500 | 0.59068 | 14855 ft | 357 kts | 80° |
| 2026-05-06 09:49 | 51.80900 | 0.63042 | 15341 ft | 360 kts | 80° |
| 2026-05-06 09:50 | 51.81337 | 0.67046 | 15850 ft | 363 kts | 78° |
| 2026-05-06 09:50 | 51.81889 | 0.71044 | 16366 ft | 366 kts | 75° |
| 2026-05-06 09:50 | 51.82514 | 0.75057 | 16892 ft | 370 kts | 75° |
| 2026-05-06 09:50 | 51.83175 | 0.79102 | 17385 ft | 375 kts | 74° |
| 2026-05-06 09:51 | 51.83851 | 0.83167 | 17887 ft | 375 kts | 73° |
| 2026-05-06 09:51 | 51.84585 | 0.87243 | 18413 ft | 378 kts | 72° |
| 2026-05-06 09:51 | 51.85357 | 0.91327 | 18890 ft | 381 kts | 72° |
| 2026-05-06 09:51 | 51.86143 | 0.95442 | 19382 ft | 384 kts | 72° |
| 2026-05-06 09:52 | 51.86927 | 0.99594 | 19878 ft | 387 kts | 73° |
| 2026-05-06 09:52 | 51.87703 | 1.03777 | 20381 ft | 390 kts | 73° |
| 2026-05-06 09:52 | 51.88471 | 1.08008 | 20892 ft | 393 kts | 74° |
| 2026-05-06 09:52 | 51.89233 | 1.12274 | 21415 ft | 396 kts | 74° |
| 2026-05-06 09:53 | 51.90000 | 1.16579 | 21938 ft | 399 kts | 75° |
| 2026-05-06 09:53 | 51.90772 | 1.20916 | 22484 ft | 402 kts | 75° |
| 2026-05-06 09:53 | 51.91554 | 1.25289 | 22886 ft | 406 kts | 75° |
| 2026-05-06 09:53 | 51.92342 | 1.29696 | 22961 ft | 407 kts | 75° |
| 2026-05-06 09:54 | 51.93119 | 1.34039 | 22966 ft | 407 kts | 75° |
| 2026-05-06 09:54 | 51.93905 | 1.38440 | 22964 ft | 407 kts | 75° |
| 2026-05-06 09:54 | 51.94691 | 1.42844 | 22969 ft | 406 kts | 75° |
| 2026-05-06 09:54 | 51.95472 | 1.47245 | 22964 ft | 406 kts | 75° |
| 2026-05-06 09:55 | 51.96251 | 1.51648 | 22962 ft | 406 kts | 75° |
| 2026-05-06 09:55 | 51.97035 | 1.56109 | 22961 ft | 406 kts | 75° |
| 2026-05-06 09:55 | 51.97798 | 1.60465 | 22960 ft | 406 kts | 75° |
| 2026-05-06 09:55 | 51.98568 | 1.64871 | 22961 ft | 406 kts | 75° |
| 2026-05-06 09:56 | 51.99337 | 1.69284 | 22965 ft | 406 kts | 75° |
| 2026-05-06 09:56 | 52.00068 | 1.73709 | 22963 ft | 406 kts | 76° |
| 2026-05-06 09:56 | 52.00761 | 1.78146 | 22962 ft | 406 kts | 77° |
| 2026-05-06 09:56 | 52.01444 | 1.82648 | 22964 ft | 406 kts | 77° |
| 2026-05-06 09:57 | 52.02108 | 1.87070 | 22963 ft | 413 kts | 77° |
| 2026-05-06 09:57 | 52.02795 | 1.91624 | 22962 ft | 417 kts | 77° |
| 2026-05-06 09:57 | 52.03489 | 1.96194 | 22962 ft | 418 kts | 77° |
| 2026-05-06 09:57 | 52.04191 | 2.00771 | 22959 ft | 418 kts | 77° |
| 2026-05-06 09:58 | 52.04896 | 2.05351 | 22962 ft | 418 kts | 77° |
| 2026-05-06 09:58 | 52.05600 | 2.09931 | 22962 ft | 418 kts | 77° |
| 2026-05-06 09:58 | 52.06303 | 2.14505 | 22961 ft | 418 kts | 77° |
| 2026-05-06 09:58 | 52.07004 | 2.19090 | 22961 ft | 418 kts | 77° |
| 2026-05-06 09:59 | 52.07700 | 2.23669 | 22958 ft | 418 kts | 77° |
| 2026-05-06 09:59 | 52.08396 | 2.28257 | 22957 ft | 418 kts | 77° |
| 2026-05-06 09:59 | 52.09090 | 2.32844 | 22955 ft | 418 kts | 77° |
| 2026-05-06 09:59 | 52.09778 | 2.37431 | 22953 ft | 418 kts | 77° |
| 2026-05-06 10:00 | 52.10461 | 2.42027 | 22952 ft | 418 kts | 77° |
| 2026-05-06 10:00 | 52.11177 | 2.46601 | 22876 ft | 415 kts | 73° |
| 2026-05-06 10:00 | 52.12252 | 2.50889 | 22595 ft | 407 kts | 62° |
| 2026-05-06 10:00 | 52.13667 | 2.54850 | 22350 ft | 404 kts | 59° |
| 2026-05-06 10:01 | 52.15098 | 2.58773 | 21965 ft | 401 kts | 59° |
| 2026-05-06 10:01 | 52.16514 | 2.62672 | 21594 ft | 399 kts | 59° |
| 2026-05-06 10:01 | 52.17919 | 2.66560 | 21215 ft | 397 kts | 59° |
| 2026-05-06 10:01 | 52.19311 | 2.70420 | 20835 ft | 394 kts | 59° |
| 2026-05-06 10:02 | 52.20674 | 2.74208 | 20468 ft | 392 kts | 59° |
| 2026-05-06 10:02 | 52.22049 | 2.78029 | 20113 ft | 389 kts | 59° |
| 2026-05-06 10:02 | 52.23414 | 2.81824 | 19747 ft | 387 kts | 59° |
| 2026-05-06 10:02 | 52.24772 | 2.85601 | 19385 ft | 384 kts | 59° |
| 2026-05-06 10:03 | 52.26114 | 2.89348 | 19030 ft | 381 kts | 59° |
| 2026-05-06 10:03 | 52.27446 | 2.93076 | 18662 ft | 378 kts | 59° |
| 2026-05-06 10:03 | 52.28765 | 2.96774 | 18312 ft | 376 kts | 59° |
| 2026-05-06 10:03 | 52.30076 | 3.00447 | 17927 ft | 373 kts | 59° |
| 2026-05-06 10:04 | 52.31378 | 3.04101 | 17571 ft | 371 kts | 59° |
| 2026-05-06 10:04 | 52.32671 | 3.07742 | 17228 ft | 369 kts | 59° |
| 2026-05-06 10:04 | 52.33957 | 3.11367 | 16879 ft | 367 kts | 59° |
| 2026-05-06 10:04 | 52.35237 | 3.14971 | 16533 ft | 365 kts | 59° |
| 2026-05-06 10:05 | 52.36079 | 3.17344 | 16290 ft | 363 kts | 59° |
| 2026-05-06 10:05 | 52.37343 | 3.20912 | 15960 ft | 361 kts | 59° |
| 2026-05-06 10:05 | 52.38599 | 3.24466 | 15614 ft | 359 kts | 59° |
| 2026-05-06 10:05 | 52.39846 | 3.27996 | 15275 ft | 357 kts | 59° |
| 2026-05-06 10:06 | 52.41084 | 3.31513 | 14941 ft | 356 kts | 59° |
| 2026-05-06 10:06 | 52.42313 | 3.35017 | 14628 ft | 354 kts | 59° |
| 2026-05-06 10:06 | 52.43533 | 3.38500 | 14280 ft | 352 kts | 59° |
| 2026-05-06 10:06 | 52.44599 | 3.41856 | 13970 ft | 350 kts | 67° |
| 2026-05-06 10:07 | 52.45316 | 3.45659 | 13628 ft | 349 kts | 77° |
| 2026-05-06 10:07 | 52.45865 | 3.49515 | 13277 ft | 347 kts | 76° |
| 2026-05-06 10:07 | 52.46416 | 3.53358 | 12966 ft | 345 kts | 76° |
| 2026-05-06 10:07 | 52.46963 | 3.57167 | 12635 ft | 343 kts | 76° |
| 2026-05-06 10:08 | 52.47506 | 3.60964 | 12310 ft | 341 kts | 76° |
| 2026-05-06 10:08 | 52.48045 | 3.64741 | 11991 ft | 339 kts | 76° |
| 2026-05-06 10:08 | 52.48579 | 3.68493 | 11676 ft | 337 kts | 76° |
| 2026-05-06 10:08 | 52.49107 | 3.72213 | 11362 ft | 335 kts | 76° |
| 2026-05-06 10:09 | 52.49626 | 3.75876 | 11050 ft | 333 kts | 76° |
| 2026-05-06 10:09 | 52.50146 | 3.79561 | 10742 ft | 330 kts | 76° |
| 2026-05-06 10:09 | 52.50619 | 3.83240 | 10430 ft | 329 kts | 82° |
| 2026-05-06 10:09 | 52.50443 | 3.86931 | 10109 ft | 324 kts | 106° |
| 2026-05-06 10:10 | 52.49404 | 3.90152 | 9792 ft | 319 kts | 128° |
| 2026-05-06 10:10 | 52.47945 | 3.92848 | 9437 ft | 309 kts | 132° |
| 2026-05-06 10:10 | 52.46516 | 3.95341 | 9112 ft | 295 kts | 132° |
| 2026-05-06 10:10 | 52.45117 | 3.97757 | 8794 ft | 290 kts | 132° |
| 2026-05-06 10:11 | 52.43725 | 4.00144 | 8479 ft | 288 kts | 133° |
| 2026-05-06 10:11 | 52.42341 | 4.02509 | 8137 ft | 287 kts | 133° |
| 2026-05-06 10:11 | 52.40961 | 4.04856 | 7801 ft | 284 kts | 133° |
| 2026-05-06 10:11 | 52.39591 | 4.07173 | 7499 ft | 282 kts | 133° |
| 2026-05-06 10:12 | 52.38229 | 4.09469 | 7184 ft | 280 kts | 133° |
| 2026-05-06 10:12 | 52.36874 | 4.11748 | 6889 ft | 278 kts | 133° |
| 2026-05-06 10:12 | 52.35527 | 4.14011 | 6589 ft | 277 kts | 133° |
| 2026-05-06 10:12 | 52.34188 | 4.16259 | 6287 ft | 275 kts | 133° |
| 2026-05-06 10:13 | 52.32849 | 4.18499 | 5973 ft | 274 kts | 132° |
| 2026-05-06 10:13 | 52.31510 | 4.20707 | 5659 ft | 273 kts | 132° |
| 2026-05-06 10:13 | 52.30171 | 4.22892 | 5312 ft | 271 kts | 132° |
| 2026-05-06 10:13 | 52.28829 | 4.25049 | 4951 ft | 270 kts | 132° |
| 2026-05-06 10:14 | 52.28375 | 4.25775 | 4828 ft | 269 kts | 133° |
| 2026-05-06 10:14 | 52.27886 | 4.26520 | 4701 ft | 268 kts | 135° |
| 2026-05-06 10:14 | 52.26483 | 4.28674 | 4321 ft | 266 kts | 133° |
| 2026-05-06 10:14 | 52.25162 | 4.30770 | 3945 ft | 264 kts | 133° |
| 2026-05-06 10:15 | 52.23847 | 4.32852 | 3595 ft | 262 kts | 133° |
| 2026-05-06 10:15 | 52.22541 | 4.34908 | 3232 ft | 260 kts | 132° |
| 2026-05-06 10:15 | 52.21240 | 4.36938 | 2866 ft | 257 kts | 131° |
| 2026-05-06 10:15 | 52.20298 | 4.39313 | 2505 ft | 247 kts | 104° |
| 2026-05-06 10:16 | 52.20000 | 4.42037 | 2143 ft | 243 kts | 94° |
| 2026-05-06 10:16 | 52.19836 | 4.44723 | 1994 ft | 233 kts | 92° |
| 2026-05-06 10:16 | 52.19684 | 4.47238 | 1998 ft | 219 kts | 92° |
| 2026-05-06 10:16 | 52.19774 | 4.49589 | 2001 ft | 199 kts | 71° |
| 2026-05-06 10:17 | 52.20340 | 4.51548 | 2029 ft | 188 kts | 56° |
| 2026-05-06 10:17 | 52.21016 | 4.53285 | 2004 ft | 176 kts | 55° |
| 2026-05-06 10:17 | 52.21661 | 4.54950 | 2023 ft | 172 kts | 56° |
| 2026-05-06 10:17 | 52.22299 | 4.56597 | 2028 ft | 170 kts | 56° |
| 2026-05-06 10:18 | 52.22928 | 4.58222 | 2005 ft | 169 kts | 56° |
| 2026-05-06 10:18 | 52.23559 | 4.59852 | 1932 ft | 170 kts | 56° |
| 2026-05-06 10:18 | 52.24165 | 4.61419 | 1752 ft | 157 kts | 56° |
| 2026-05-06 10:18 | 52.24731 | 4.62885 | 1566 ft | 151 kts | 56° |
| 2026-05-06 10:19 | 52.25271 | 4.64283 | 1380 ft | 141 kts | 56° |
| 2026-05-06 10:19 | 52.25785 | 4.65614 | 1186 ft | 138 kts | 55° |
| 2026-05-06 10:19 | 52.26283 | 4.66905 | 999 ft | 130 kts | 56° |
| 2026-05-06 10:19 | 52.26759 | 4.68140 | 823 ft | 125 kts | 55° |
| 2026-05-06 10:20 | 52.27222 | 4.69350 | 641 ft | 126 kts | 56° |
| 2026-05-06 10:20 | 52.27686 | 4.70559 | 454 ft | 126 kts | 54° |
| 2026-05-06 10:20 | 52.28151 | 4.71756 | 323 ft | 124 kts | 54° |
| 2026-05-06 10:20 | 52.28615 | 4.72954 | 124 ft | 125 kts | 55° |
| 2026-05-06 10:21 | 52.29070 | 4.74153 | 11 ft | 122 kts | 53° |
| 2026-05-06 10:21 | 52.29453 | 4.75128 | -3 ft | 74 kts | 58° |
| 2026-05-06 10:21 | 52.29627 | 4.75587 | -1 ft | 21 kts | 58° |
| 2026-05-06 10:21 | 52.29723 | 4.75752 | -2 ft | 20 kts | 32° |
| 2026-05-06 10:22 | 52.29824 | 4.75840 | -1 ft | 11 kts | 27° |
| 2026-05-06 10:22 | 52.29869 | 4.75878 | -1 ft | 5 kts | 27° |
| 2026-05-06 10:22 | 52.29887 | 4.75894 | -1 ft | 0 kts | 27° |
| 2026-05-06 10:23 | 52.29926 | 4.75926 | -1 ft | 13 kts | 27° |
| 2026-05-06 10:23 | 52.30006 | 4.76029 | -1 ft | 16 kts | 53° |
| 2026-05-06 10:24 | 52.30070 | 4.76194 | -1 ft | 18 kts | 58° |
| 2026-05-06 10:24 | 52.30142 | 4.76382 | -1 ft | 20 kts | 58° |
| 2026-05-06 10:24 | 52.30218 | 4.76579 | -1 ft | 21 kts | 58° |
| 2026-05-06 10:24 | 52.30298 | 4.76783 | -1 ft | 21 kts | 57° |
| 2026-05-06 10:25 | 52.30379 | 4.76991 | -1 ft | 22 kts | 59° |
| 2026-05-06 10:25 | 52.30460 | 4.77207 | -1 ft | 23 kts | 57° |
| 2026-05-06 10:25 | 52.30543 | 4.77422 | -1 ft | 17 kts | 58° |
| 2026-05-06 10:25 | 52.30606 | 4.77557 | -1 ft | 15 kts | 37° |
| 2026-05-06 10:26 | 52.30709 | 4.77592 | -1 ft | 16 kts | 3° |
| 2026-05-06 10:26 | 52.30791 | 4.77598 | -1 ft | 10 kts | 354° |
| 2026-05-06 10:26 | 52.30832 | 4.77517 | -1 ft | 10 kts | 278° |
| 2026-05-06 10:26 | 52.30837 | 4.77414 | -1 ft | 9 kts | 274° |
| 2026-05-06 10:27 | 52.30840 | 4.77317 | -1 ft | 8 kts | 273° |
| 2026-05-06 10:27 | 52.30843 | 4.77231 | -1 ft | 6 kts | 273° |
| 2026-05-06 10:27 | 52.30850 | 4.77183 | -1 ft | 3 kts | 321° |
| 2026-05-06 10:27 | 52.30878 | 4.77173 | -1 ft | 6 kts | 0° |
| 2026-05-06 10:28 | 52.30896 | 4.77175 | -1 ft | 1 kts | 3° |
| 2026-05-06 10:28 | 52.30902 | 4.77175 | -1 ft | 0 kts | 2° |